Flight Track Log - Related Links

Times and Time Zones

All times are in EDT time to prevent confusion due to time zone crossing. See the EJA729 flight status page for this flight to view local times or setup timezone preferences in your user account.

Time Position Orientation Groundspeed Altitude Reporting Facility
EDT Latitude Longitude Course Direction KTS MPH feet Rate Location/Type
Fri 11:15:24 PM 41.3019 -75.7614 222° Southwest 209 241 2,400  Level New York Center
Fri 11:16:25 PM 41.2539 -75.8186 222° Southwest 234 269 5,700 2,705 Climbing New York Center
Fri 11:17:26 PM 41.2261 -75.8797 239° Southwest 228 262 7,900 1,160 Climbing New York Center
Fri 11:18:24 PM 41.1892 -75.9625 239° Southwest 249 287 8,000 50 Climbing New York Center
Fri 11:19:26 PM 41.1475 -76.0586 240° Southwest 276 318 8,000  Level New York Center
Fri 11:20:26 PM 41.1100 -76.1492 241° Southwest 276 318 8,000 1,250 Level New York Center
Fri 11:21:26 PM 41.0706 -76.2369 239° Southwest 281 323 10,500 2,750 Climbing New York Center
Fri 11:22:26 PM 41.0311 -76.3272 240° Southwest 297 342 13,500 3,153 Climbing New York Center
Fri 11:23:24 PM 40.9839 -76.4417 241° Southwest 315 362 16,700 2,949 Climbing New York Center
Fri 11:24:24 PM 40.9417 -76.5369 240° Southwest 330 380 19,300 2,450 Climbing New York Center
Fri 11:25:24 PM 40.8950 -76.6403 239° Southwest 330 380 21,600 2,033 Climbing New York Center
Fri 11:26:25 PM 40.8481 -76.7486 240° Southwest 336 387 23,400 1,869 Climbing New York Center
Fri 11:27:26 PM 40.8006 -76.8597 241° Southwest 341 392 25,400 1,765 Climbing New York Center
Fri 11:28:24 PM 40.7961 -76.9856 267° West 338 389 26,900 1,373 Climbing New York Center
Fri 11:29:24 PM 40.8161 -77.1217 281° West 349 402 28,100 984 Climbing New York Center
Fri 11:30:26 PM 40.8331 -77.2658 279° West 381 438 28,900 950 Climbing New York Center
Fri 11:31:24 PM 40.8522 -77.4103 280° West 397 457 30,000 968 Climbing New York Center
Fri 11:33:32 PM 40.8867 -77.7458 278° West 404 465 31,900 926 Climbing Cleveland Center
Fri 11:34:32 PM 40.9028 -77.8908 278° West 409 471 32,900 1,000 Climbing Cleveland Center
Fri 11:35:32 PM 40.9183 -78.0331 278° West 404 465 33,900 550 Climbing Cleveland Center
Fri 11:36:32 PM 40.9358 -78.1672 280° West 409 471 34,000 50 Climbing Cleveland Center
Fri 11:37:32 PM 40.9581 -78.3258 281° West 409 471 34,000  Level Cleveland Center
Fri 11:38:32 PM 40.9753 -78.4681 279° West 404 465 34,000  Level Cleveland Center
Fri 11:39:32 PM 40.9925 -78.6106 279° West 404 465 34,000  Level Cleveland Center
Fri 11:40:32 PM 41.0094 -78.7533 279° West 404 465 34,000  Level Cleveland Center
Fri 11:41:32 PM 41.0264 -78.9014 279° West 404 465 34,000  Level Cleveland Center
Fri 11:42:32 PM 41.0428 -79.0442 279° West 404 465 34,000  Level Cleveland Center
Fri 11:43:32 PM 41.0594 -79.1897 279° West 404 465 34,000  Level Cleveland Center
Fri 11:44:32 PM 41.0756 -79.3353 278° West 404 465 34,000  Level Cleveland Center
Fri 11:45:32 PM 41.0939 -79.4867 279° West 409 471 34,000  Level Cleveland Center
Fri 11:46:32 PM 41.1097 -79.6378 278° West 409 471 34,000  Level Cleveland Center
Fri 11:47:32 PM 41.1275 -79.7975 278° West 426 490 34,000  Level Cleveland Center
Fri 11:48:32 PM 41.1411 -79.9628 276° West 438 504 34,000  Level Cleveland Center
Fri 11:49:32 PM 41.1628 -80.1225 280° West 443 510 34,000  Level Cleveland Center
Fri 11:50:32 PM 41.1800 -80.2825 278° West 443 510 34,000  Level Cleveland Center
Fri 11:51:32 PM 41.1950 -80.4506 277° West 449 517 34,000  Level Cleveland Center
Fri 11:52:32 PM 41.2117 -80.6108 278° West 449 517 34,000  Level Cleveland Center
Fri 11:53:32 PM 41.2281 -80.7736 278° West 449 517 34,000  Level Cleveland Center
Fri 11:54:32 PM 41.2444 -80.9394 278° West 449 517 34,000  Level Cleveland Center
Fri 11:55:32 PM 41.2583 -81.0886 277° West 449 517 34,000  Level Cleveland Center
Fri 11:56:32 PM 41.2742 -81.2517 277° West 450 518 34,000  Level Cleveland Center
Fri 11:57:32 PM 41.2939 -81.4289 278° West 450 518 34,000  Level Cleveland Center
Fri 11:58:32 PM 41.3092 -81.5950 277° West 445 512 34,000 300 Level Cleveland Center
Fri 11:59:32 PM 41.3222 -81.7581 276° West 445 512 34,600 650 Climbing Cleveland Center
Sat 12:00:32 AM 41.3392 -81.9189 278° West 445 512 35,300 700 Climbing Cleveland Center
Sat 12:01:32 AM 41.3519 -82.0825 276° West 445 512 36,000 350 Climbing Cleveland Center
Sat 12:02:32 AM 41.3619 -82.2514 275° West 453 521 36,000  Level Cleveland Center
Sat 12:03:32 AM 41.3703 -82.3983 274° West 453 521 36,000  Level Cleveland Center
Sat 12:04:32 AM 41.3800 -82.5617 275° West 453 521 36,000  Level Cleveland Center
Sat 12:05:32 AM 41.3894 -82.7281 274° West 448 516 36,000  Level Cleveland Center
Sat 12:06:32 AM 41.3989 -82.8944 274° West 448 516 36,000  Level Cleveland Center
Sat 12:07:32 AM 41.4078 -83.0611 274° West 448 516 36,000  Level Cleveland Center
Sat 12:08:32 AM 41.4144 -83.2247 273° West 454 522 36,000  Level Cleveland Center
Sat 12:09:32 AM 41.4231 -83.3911 274° West 454 522 36,000  Level Cleveland Center
Sat 12:10:32 AM 41.4311 -83.5633 274° West 454 522 36,000  Level Cleveland Center
Sat 12:11:32 AM 41.4394 -83.7272 274° West 454 522 36,000  Level Cleveland Center
Sat 12:12:31 AM 41.4481 -83.8842 274° West 454 522 36,000  Level Chicago Center
Sat 12:13:32 AM 41.4561 -84.0533 274° West 456 525 36,000  Level Chicago Center
Sat 12:14:33 AM 41.4636 -84.2219 273° West 457 526 36,000  Level Chicago Center
Sat 12:15:34 AM 41.4717 -84.4222 273° West 454 522 36,000  Level Chicago Center
Sat 12:16:35 AM 41.4781 -84.5922 273° West 458 527 36,000  Level Chicago Center
Sat 12:17:36 AM 41.4850 -84.7625 273° West 459 528 36,000  Level Chicago Center
Sat 12:18:37 AM 41.4911 -84.9333 273° West 461 531 36,000  Level Chicago Center
Sat 12:19:38 AM 41.4972 -85.1036 273° West 459 528 36,000  Level Chicago Center
Sat 12:20:39 AM 41.5022 -85.2761 272° West 462 532 36,000  Level Chicago Center
Sat 12:21:40 AM 41.5058 -85.4517 272° West 462 532 36,000  Level Chicago Center
Sat 12:22:41 AM 41.5128 -85.6250 273° West 460 529 36,000  Level Chicago Center
Sat 12:23:42 AM 41.5172 -85.7956 272° West 459 528 36,000  Level Chicago Center
Sat 12:24:43 AM 41.5222 -85.9631 272° West 454 522 36,000  Level Chicago Center
Sat 12:25:44 AM 41.5261 -86.1281 272° West 448 516 36,000  Level Chicago Center
Sat 12:26:44 AM 41.5294 -86.2939 272° West 446 513 36,000  Level Chicago Center
Sat 12:27:45 AM 41.5322 -86.4592 271° West 446 513 36,000  Level Chicago Center
Sat 12:28:46 AM 41.5350 -86.6233 271° West 444 511 36,000  Level Chicago Center
Sat 12:29:47 AM 41.5381 -86.7797 272° West 440 506 36,000  Level Chicago Center
Sat 12:30:48 AM 41.5392 -86.9756 270° West 440 506 36,000  Level Chicago Center
Sat 12:31:49 AM 41.5406 -87.1381 271° West 440 506 36,000  Level Chicago Center
Sat 12:32:50 AM 41.5419 -87.2997 271° West 437 503 36,000 248 Level Chicago Center
Sat 12:33:50 AM 41.5431 -87.4614 271° West 439 505 36,500 595 Climbing Chicago Center
Sat 12:34:51 AM 41.5439 -87.6225 270° West 439 505 37,200 590 Climbing Chicago Center
Sat 12:35:52 AM 41.5450 -87.7806 271° West 435 501 37,700 393 Climbing Chicago Center
Sat 12:36:53 AM 41.5453 -87.9350 270° West 426 490 38,000 148 Climbing Chicago Center
Sat 12:37:54 AM 41.5453 -88.0886 270° West 427 491 38,000  Level Chicago Center
Sat 12:38:55 AM 41.5464 -88.2756 271° West 432 497 38,000  Level Chicago Center
Sat 12:39:56 AM 41.5461 -88.4336 270° West 431 496 38,000  Level Chicago Center
Sat 12:40:56 AM 41.5469 -88.5897 270° West 427 491 38,000  Level Chicago Center
Sat 12:41:57 AM 41.5481 -88.7481 271° West 429 494 38,000  Level Chicago Center
Sat 12:42:57 AM 41.5472 -88.9042 270° West 427 491 38,000  Level Chicago Center
Sat 12:43:58 AM 41.5475 -89.0636 270° West 432 497 38,000  Level Chicago Center
Sat 12:44:59 AM 41.5483 -89.2225 270° West 432 497 38,000  Level Chicago Center
Sat 12:45:59 AM 41.5489 -89.3806 270° West 432 497 38,000  Level Chicago Center
Sat 12:47:00 AM 41.5478 -89.5636 270° West 432 497 38,000  Level Chicago Center
Sat 12:48:00 AM 41.5478 -89.7203 270° West 428 493 38,000  Level Chicago Center
Sat 12:49:01 AM 41.5467 -89.8767 270° West 424 488 38,000  Level Chicago Center
Sat 12:50:02 AM 41.5450 -90.0350 269° West 428 493 38,000  Level Chicago Center
Sat 12:51:02 AM 41.5439 -90.1919 270° West 427 491 38,000  Level Chicago Center
Sat 12:52:03 AM 41.5403 -90.3533 268° West 435 501 38,000  Level Chicago Center
Sat 12:53:03 AM 41.5389 -90.5131 269° West 435 501 38,000  Level Chicago Center
Sat 12:54:04 AM 41.5364 -90.6719 269° West 431 496 38,000  Level Chicago Center
Sat 12:55:04 AM 41.5333 -90.8311 269° West 431 496 38,000  Level Chicago Center
Sat 12:56:05 AM 41.5308 -90.9911 269° West 434 499 38,000  Level Chicago Center
Sat 12:57:05 AM 41.5289 -91.1483 269° West 429 494 38,000  Level Chicago Center
Sat 12:58:06 AM 41.5250 -91.3064 268° West 429 494 38,000  Level Chicago Center
Sat 12:59:06 AM 41.5222 -91.4625 269° West 424 488 38,000  Level Chicago Center
Sat 01:00:08 AM 41.5186 -91.6153 268° West 417 480 38,000  Level Chicago Center
Sat 01:01:08 AM 41.5044 -91.7650 263° West 410 472 38,000  Level Chicago Center
Sat 01:02:09 AM 41.4900 -91.9181 263° West 416 479 38,000  Level Chicago Center
Sat 01:03:09 AM 41.4719 -92.1025 263° West 420 483 38,000  Level Chicago Center
Sat 01:04:10 AM 41.4578 -92.2544 263° West 417 480 38,000  Level Chicago Center
Sat 01:05:10 AM 41.4439 -92.3986 263° West 425 489 38,000  Level Chicago Center
Sat 01:06:11 AM 41.4286 -92.5533 263° West 425 489 38,000  Level Chicago Center
Sat 01:07:01 AM 41.4156 -92.6786 262° West 427 491 38,000  Level Minneapolis Center
Sat 01:08:01 AM 41.3992 -92.8347 262° West 429 494 38,000  Level Minneapolis Center
Sat 01:09:02 AM 41.3794 -93.0225 262° West 431 496 38,000  Level Minneapolis Center
Sat 01:10:02 AM 41.3625 -93.1792 262° West 431 496 38,000  Level Minneapolis Center
Sat 01:11:03 AM 41.3456 -93.3347 262° West 430 495 38,000  Level Minneapolis Center
Sat 01:12:04 AM 41.3286 -93.4881 262° West 427 491 38,000  Level Minneapolis Center
Sat 01:13:04 AM 41.3142 -93.6375 263° West 417 480 38,000  Level Minneapolis Center
Sat 01:14:05 AM 41.2967 -93.7922 261° West 423 487 38,000  Level Minneapolis Center
Sat 01:15:05 AM 41.2803 -93.9447 262° West 422 486 38,000  Level Minneapolis Center
Sat 01:16:06 AM 41.2611 -94.1000 261° West 427 491 38,000  Level Minneapolis Center
Sat 01:17:06 AM 41.2414 -94.2756 262° West 423 487 38,000  Level Minneapolis Center
Sat 01:18:07 AM 41.2242 -94.4261 261° West 415 478 38,000  Level Minneapolis Center
Sat 01:19:07 AM 41.2056 -94.5756 261° West 411 473 38,000  Level Minneapolis Center
Sat 01:20:08 AM 41.1883 -94.7231 261° West 406 467 38,000  Level Minneapolis Center
Sat 01:21:08 AM 41.1692 -94.8683 260° West 402 463 38,000  Level Minneapolis Center
Sat 01:22:09 AM 41.1508 -95.0144 261° West 401 461 38,000  Level Minneapolis Center
Sat 01:23:09 AM 41.1331 -95.1619 261° West 402 463 38,000  Level Minneapolis Center
Sat 01:24:10 AM 41.1139 -95.3100 260° West 407 468 38,000  Level Minneapolis Center
Sat 01:25:10 AM 41.1081 -95.4564 267° West 403 464 38,000  Level Minneapolis Center
Sat 01:26:11 AM 41.1092 -95.6044 271° West 401 461 38,000  Level Minneapolis Center
Sat 01:27:11 AM 41.1072 -95.7511 269° West 397 457 38,000  Level Minneapolis Center
Sat 01:28:12 AM 41.1069 -95.9025 270° West 403 464 38,000  Level Minneapolis Center
Sat 01:29:12 AM 41.1061 -96.0556 270° West 408 470 38,000  Level Minneapolis Center
Sat 01:30:13 AM 41.1069 -96.2092 270° West 410 472 38,000  Level Minneapolis Center
Sat 01:31:13 AM 41.1069 -96.3614 270° West 410 472 38,000  Level Minneapolis Center
Sat 01:32:14 AM 41.1056 -96.5125 269° West 408 470 38,000  Level Minneapolis Center
Sat 01:33:14 AM 41.1039 -96.6647 269° West 411 473 38,000  Level Minneapolis Center
Sat 01:34:14 AM 41.1022 -96.8172 269° West 411 473 38,000  Level Minneapolis Center
Sat 01:35:15 AM 41.1014 -96.9717 270° West 418 481 38,000  Level Minneapolis Center
Sat 01:36:15 AM 41.0994 -97.1242 269° West 414 476 38,000 298 Level Minneapolis Center
Sat 01:37:16 AM 41.0972 -97.2767 269° West 413 475 38,600 595 Climbing Minneapolis Center
Sat 01:38:16 AM 41.0953 -97.4247 269° West 413 475 39,200 550 Climbing Minneapolis Center
Sat 01:39:16 AM 41.0936 -97.5744 269° West 409 471 39,700 397 Climbing Minneapolis Center
Sat 01:40:17 AM 41.0903 -97.7228 268° West 405 466 40,000 149 Climbing Minneapolis Center
Sat 01:41:17 AM 41.0872 -97.8703 268° West 401 461 40,000  Level Minneapolis Center
Sat 01:42:18 AM 41.0842 -98.0197 268° West 404 465 40,000  Level Minneapolis Center
Sat 01:43:18 AM 41.0811 -98.1697 269° West 406 467 40,000  Level Minneapolis Center
Sat 01:44:19 AM 41.0783 -98.3189 269° West 405 466 40,000  Level Minneapolis Center
Sat 01:45:19 AM 41.0750 -98.4703 268° West 403 464 40,000  Level Minneapolis Center
Sat 01:46:19 AM 41.0711 -98.6194 268° West 404 465 40,000  Level Minneapolis Center
Sat 01:47:20 AM 41.0678 -98.7714 268° West 408 470 40,000  Level Minneapolis Center
Sat 01:48:20 AM 41.0622 -98.9222 267° West 410 472 40,000  Level Minneapolis Center
Sat 01:49:25 AM 41.0583 -99.0869 268° West 408 470 40,000  Level Denver Center
Sat 01:50:26 AM 41.0542 -99.2336 268° West 412 474 40,000  Level Denver Center
Sat 01:51:38 AM 41.0494 -99.3836 268° West 410 472 40,000  Level Denver Center
Sat 01:52:39 AM 41.0439 -99.5639 268° West 408 470 40,000  Level Denver Center
Sat 01:53:40 AM 41.0389 -99.7150 268° West 410 472 40,000  Level Denver Center
Sat 01:54:41 AM 41.0339 -99.8792 268° West 408 470 40,000  Level Denver Center
Sat 01:55:41 AM 41.0286 -100.0222 267° West 407 468 40,000  Level Denver Center
Sat 01:56:42 AM 41.0219 -100.1869 267° West 404 465 40,000  Level Denver Center
Sat 01:57:43 AM 41.0164 -100.3283 267° West 402 463 40,000  Level Denver Center
Sat 01:58:44 AM 41.0114 -100.4694 267° West 404 465 40,000  Level Denver Center
Sat 01:59:44 AM 41.0053 -100.6344 267° West 406 467 40,000  Level Denver Center
Sat 02:00:45 AM 40.9992 -100.7767 267° West 409 471 40,000  Level Denver Center
Sat 02:01:46 AM 40.9894 -100.9400 266° West 404 465 40,000  Level Denver Center
Sat 02:02:46 AM 40.9831 -101.0808 267° West 405 466 40,000  Level Denver Center
Sat 02:03:47 AM 40.9761 -101.2217 266° West 405 466 40,000  Level Denver Center
Sat 02:04:48 AM 40.9672 -101.3853 266° West 403 464 40,000  Level Denver Center
Sat 02:05:49 AM 40.9600 -101.5281 266° West 407 468 40,000  Level Denver Center
Sat 02:06:49 AM 40.9531 -101.6700 266° West 406 467 40,000  Level Denver Center
Sat 02:07:50 AM 40.9433 -101.8367 266° West 409 471 40,000  Level Denver Center
Sat 02:08:51 AM 40.9353 -101.9789 266° West 407 468 40,000  Level Denver Center
Sat 02:09:52 AM 40.9311 -102.1214 268° West 405 466 40,000  Level Denver Center
Sat 02:10:52 AM 40.9206 -102.2875 265° West 406 467 40,000  Level Denver Center
Sat 02:11:53 AM 40.9114 -102.4294 265° West 408 470 40,000  Level Denver Center
Sat 02:12:54 AM 40.8894 -102.5700 258° West 409 471 40,000  Level Denver Center
Sat 02:13:55 AM 40.8639 -102.7333 258° West 408 470 40,000  Level Denver Center
Sat 02:14:55 AM 40.8428 -102.8744 259° West 411 473 40,000  Level Denver Center
Sat 02:15:56 AM 40.8261 -103.0058 261° West 408 470 40,000  Level Denver Center
Sat 02:16:57 AM 40.8025 -103.1831 260° West 410 472 40,000  Level Denver Center
Sat 02:17:58 AM 40.7828 -103.3314 260° West 413 475 40,000  Level Denver Center
Sat 02:18:58 AM 40.7628 -103.4803 260° West 415 478 40,000  Level Denver Center
Sat 02:19:59 AM 40.7419 -103.6303 260° West 418 481 40,000  Level Denver Center
Sat 02:21:00 AM 40.7217 -103.7811 260° West 420 483 40,000  Level Denver Center
Sat 02:22:01 AM 40.7011 -103.9311 260° West 418 481 40,000  Level Denver Center
Sat 02:23:01 AM 40.6775 -104.0836 259° West 428 493 40,000  Level Denver Center
Sat 02:24:02 AM 40.6569 -104.2353 260° West 425 489 40,000  Level Denver Center
Sat 02:25:03 AM 40.6353 -104.3881 259° West 427 491 40,000  Level Denver Center
Sat 02:26:04 AM 40.6125 -104.5406 259° West 428 493 40,000  Level Denver Center
Sat 02:27:04 AM 40.5897 -104.6958 259° West 433 498 40,000  Level Denver Center
Sat 02:28:05 AM 40.5669 -104.8508 259° West 434 499 40,000  Level Denver Center
Sat 02:29:06 AM 40.5436 -105.0061 259° West 435 501 40,000  Level Denver Center
Sat 02:30:07 AM 40.5156 -105.1897 259° West 430 495 40,000  Level Denver Center
Sat 02:31:08 AM 40.4906 -105.3442 258° West 434 499 40,000  Level Denver Center
Sat 02:32:08 AM 40.4667 -105.5022 259° West 442 509 40,000  Level Denver Center
Sat 02:33:09 AM 40.4425 -105.6592 259° West 442 509 40,000  Level Denver Center
Sat 02:34:10 AM 40.4169 -105.8194 258° West 450 518 40,000  Level Denver Center
Sat 02:35:11 AM 40.3914 -105.9775 258° West 447 514 40,000  Level Denver Center
Sat 02:36:11 AM 40.3658 -106.1372 258° West 449 517 40,000  Level Denver Center
Sat 02:37:12 AM 40.3358 -106.3172 258° West 454 522 40,000  Level Denver Center
Sat 02:38:13 AM 40.3111 -106.4719 258° West 455 524 40,000  Level Denver Center
Sat 02:39:14 AM 40.2836 -106.6369 258° West 454 522 40,000  Level Denver Center
Sat 02:40:14 AM 40.2586 -106.7975 259° West 452 520 40,000  Level Denver Center
Sat 02:41:15 AM 40.2294 -106.9606 257° West 453 521 40,000  Level Denver Center
Sat 02:42:16 AM 40.2039 -107.1147 258° West 454 522 40,000  Level Denver Center
Sat 02:43:17 AM 40.1742 -107.2956 258° West 456 525 40,000  Level Denver Center
Sat 02:44:17 AM 40.1464 -107.4492 257° West 454 522 40,000  Level Denver Center
Sat 02:45:18 AM 40.1206 -107.6039 258° West 456 525 40,000  Level Denver Center
Sat 02:46:19 AM 40.0872 -107.7817 256° West 453 521 40,000  Level Denver Center
Sat 02:47:19 AM 40.0614 -107.9344 258° West 451 519 40,000  Level Denver Center
Sat 02:48:20 AM 40.0342 -108.0861 257° West 448 516 40,000  Level Denver Center
Sat 02:49:21 AM 40.0125 -108.2119 257° West 448 516 40,000  Level Denver Center
Sat 02:50:21 AM 39.9761 -108.4106 257° West 445 512 40,000  Level Denver Center
Sat 02:51:22 AM 39.9489 -108.5614 257° West 450 518 40,000  Level Denver Center
Sat 02:52:23 AM 39.9150 -108.7411 256° West 461 531 40,000  Level Denver Center
Sat 02:53:23 AM 39.8869 -108.8947 257° West 461 531 40,000  Level Denver Center
Sat 02:54:24 AM 39.8575 -109.0494 256° West 465 535 40,000  Level Denver Center
Sat 02:55:25 AM 39.8228 -109.2308 256° West 467 537 40,000  Level Denver Center
Sat 02:56:25 AM 39.7925 -109.3858 256° West 465 535 40,000  Level Denver Center
Sat 02:57:26 AM 39.7617 -109.5425 256° West 468 539 40,000  Level Denver Center
Sat 02:58:26 AM 39.7264 -109.7233 256° West 465 535 40,000  Level Denver Center
Sat 02:59:39 AM 39.6953 -109.8794 256° West 466 536 40,000  Level Denver Center
Sat 03:00:40 AM 39.6542 -110.0872 256° West 466 536 40,000  Level Denver Center
Sat 03:01:40 AM 39.6233 -110.2436 256° West 468 539 40,000  Level Denver Center
Sat 03:02:41 AM 39.5917 -110.3986 255° West 465 535 40,000  Level Denver Center
Sat 03:03:42 AM 39.5547 -110.5808 255° West 468 539 40,000  Level Denver Center
Sat 03:04:42 AM 39.5233 -110.7353 255° West 464 534 40,000  Level Denver Center
Sat 03:05:43 AM 39.4922 -110.8906 255° West 465 535 40,000  Level Denver Center
Sat 03:07:02 AM 39.4444 -111.1208 255° West 464 534 40,000  Level Salt Lake Center
Sat 03:08:03 AM 39.4119 -111.2800 255° West 463 533 40,000  Level Salt Lake Center
Sat 03:09:03 AM 39.3778 -111.4414 255° West 464 534 40,000  Level Salt Lake Center
Sat 03:10:04 AM 39.3433 -111.6014 254° West 462 532 40,000  Level Salt Lake Center
Sat 03:11:05 AM 39.3078 -111.7625 254° West 465 535 40,000  Level Salt Lake Center
Sat 03:12:06 AM 39.2728 -111.9219 254° West 463 533 40,000  Level Salt Lake Center
Sat 03:13:06 AM 39.2397 -112.0792 255° West 456 525 40,000  Level Salt Lake Center
Sat 03:14:07 AM 39.2050 -112.2372 254° West 456 525 40,000  Level Salt Lake Center
Sat 03:15:08 AM 39.1708 -112.3942 254° West 458 527 40,000  Level Salt Lake Center
Sat 03:16:08 AM 39.1342 -112.5528 253° West 462 532 40,000  Level Salt Lake Center
Sat 03:17:09 AM 39.1006 -112.7117 255° West 464 534 40,000  Level Salt Lake Center
Sat 03:18:10 AM 39.0639 -112.8672 253° West 459 528 40,000  Level Salt Lake Center
Sat 03:19:11 AM 39.0294 -113.0222 254° West 455 524 40,000  Level Salt Lake Center
Sat 03:20:11 AM 38.9939 -113.1756 253° West 451 519 40,000  Level Salt Lake Center
Sat 03:21:12 AM 38.9578 -113.3322 254° West 456 525 40,000  Level Salt Lake Center
Sat 03:22:13 AM 38.9217 -113.4861 253° West 456 525 40,000  Level Salt Lake Center
Sat 03:23:13 AM 38.8778 -113.6742 253° West 461 531 40,000  Level Salt Lake Center
Sat 03:25:15 AM 38.8042 -113.9836 253° West 458 527 40,000  Level Salt Lake Center
Sat 03:26:15 AM 38.7672 -114.1392 253° West 459 528 40,000  Level Salt Lake Center
Sat 03:27:16 AM 38.7303 -114.2953 253° West 461 531 40,000  Level Salt Lake Center
Sat 03:28:17 AM 38.6911 -114.4522 252° West 464 534 40,000  Level Salt Lake Center
Sat 03:29:17 AM 38.6536 -114.6092 253° West 464 534 40,000  Level Salt Lake Center
Sat 03:30:18 AM 38.6147 -114.7661 252° West 464 534 40,000  Level Salt Lake Center
Sat 03:31:19 AM 38.5761 -114.9214 252° West 463 533 40,000  Level Salt Lake Center
Sat 03:32:19 AM 38.5364 -115.0783 252° West 464 534 40,000  Level Salt Lake Center
Sat 03:33:20 AM 38.4975 -115.2372 253° West 469 540 40,000  Level Salt Lake Center
Sat 03:34:21 AM 38.4539 -115.4136 253° West 469 540 40,000  Level Salt Lake Center
Sat 03:35:21 AM 38.4139 -115.5742 252° West 474 545 40,000  Level Salt Lake Center
Sat 03:36:22 AM 38.3717 -115.7331 251° West 474 545 40,000  Level Salt Lake Center
Sat 03:37:22 AM 38.3242 -115.8875 249° West 471 542 40,000  Level Salt Lake Center
Sat 03:38:23 AM 38.2769 -116.0419 249° West 468 539 40,000  Level Salt Lake Center
Sat 03:39:24 AM 38.2289 -116.1972 249° West 470 541 40,000  Level Salt Lake Center
Sat 03:40:24 AM 38.1817 -116.3494 249° West 464 534 40,000  Level Salt Lake Center
Sat 03:41:25 AM 38.1325 -116.5058 248° West 472 543 40,000  Level Salt Lake Center
Sat 03:42:26 AM 38.0828 -116.6639 248° West 478 550 40,000  Level Salt Lake Center
Sat 03:42:59 AM 38.0517 -116.7575 247° West 477 549 40,000  Level Oakland Center
Sat 03:43:59 AM 38.0017 -116.9142 248° West 476 548 40,000  Level Oakland Center
Sat 03:44:59 AM 37.9511 -117.0733 248° West 477 549 40,000  Level Oakland Center
Sat 03:46:00 AM 37.9108 -117.2014 248° West 480 552 40,000  Level Oakland Center
Sat 03:47:00 AM 37.8611 -117.3583 248° West 476 548 40,000  Level Oakland Center
Sat 03:48:01 AM 37.8114 -117.5139 248° West 474 545 40,000  Level Oakland Center
Sat 03:49:01 AM 37.7614 -117.6675 248° West 470 541 40,000  Level Oakland Center
Sat 03:50:02 AM 37.7119 -117.8186 248° West 467 537 40,000  Level Oakland Center
Sat 03:51:02 AM 37.6611 -117.9717 247° West 471 542 40,000  Level Oakland Center
Sat 03:52:02 AM 37.6008 -118.1553 248° West 473 544 40,000  Level Oakland Center
Sat 03:53:03 AM 37.5639 -118.3114 253° West 471 542 40,000 -744 Level Oakland Center
Sat 03:54:03 AM 37.5383 -118.4742 259° West 472 543 38,500 -1,736 Descending Oakland Center
Sat 03:55:04 AM 37.5139 -118.6328 259° West 467 537 36,500 -1,983 Descending Oakland Center
Sat 03:56:04 AM 37.4892 -118.7908 259° West 462 532 34,500 -1,240 Descending Oakland Center
Sat 03:57:05 AM 37.4644 -118.9200 256° West 456 525 34,000 -248 Descending Oakland Center
Sat 03:58:05 AM 37.4400 -119.0814 259° West 466 536 34,000  Level Oakland Center
Sat 03:59:05 AM 37.4131 -119.2467 258° West 480 552 34,000 -893 Level Oakland Center
Sat 04:00:06 AM 37.3858 -119.4086 258° West 477 549 32,200 -2,033 Descending Oakland Center
Sat 04:01:06 AM 37.3594 -119.5767 259° West 479 551 29,900 -2,650 Descending Oakland Center
Sat 04:02:06 AM 37.3275 -119.7689 258° West 480 552 26,900 -2,529 Descending Oakland Center
Sat 04:03:07 AM 37.3050 -119.9039 258° West 477 549 24,800 -2,281 Descending Oakland Center
Sat 04:04:07 AM 37.2789 -120.0617 258° West 464 534 22,300 -2,350 Descending Oakland Center
Sat 04:05:07 AM 37.2528 -120.2094 258° West 437 503 20,100 -1,636 Descending Oakland Center
Sat 04:06:08 AM 37.2297 -120.3500 258° West 415 478 19,000 -653 Descending Oakland Center
Sat 04:06:48 AM 37.2167 -120.4667 262° West 470 541 19,000 -960 Level Northern Cal TRACON
Sat 04:07:48 AM 37.1833 -120.6167 254° West 431 496 17,400 -1,850 Descending Northern Cal TRACON
Sat 04:08:48 AM 37.1667 -120.7500 261° West 403 464 15,300 -2,316 Descending Northern Cal TRACON
Sat 04:09:42 AM 37.1500 -120.8667 260° West 389 448 13,000 -2,273 Descending Northern Cal TRACON
Sat 04:11:00 AM 37.1500 -121.0333 270° West 330 380 10,300 -1,773 Descending Northern Cal TRACON
Sat 04:11:54 AM 37.1667 -121.1167 284° West 290 334 9,100 -1,333 Descending Northern Cal TRACON
Sat 04:12:48 AM 37.1667 -121.2000 270° West 302 348 7,900 -1,211 Descending Northern Cal TRACON
Sat 04:13:48 AM 37.1667 -121.3167 270° West 282 325 6,800 -1,050 Descending Northern Cal TRACON
Sat 04:14:48 AM 37.1667 -121.4000 270° West 285 328 5,800 -810 Descending Northern Cal TRACON
Sat 04:15:54 AM 37.1667 -121.5167 270° West 281 323 5,100 -333 Descending Northern Cal TRACON
Sat 04:16:54 AM 37.1667 -121.6000 270° West 270 311 5,100  Level Northern Cal TRACON
Sat 04:17:54 AM 37.1667 -121.7000 270° West 247 284 5,100 -550 Level Northern Cal TRACON
Sat 04:18:54 AM 37.2000 -121.7500 310° West 217 250 4,000 -1,000 Descending Northern Cal TRACON
Sat 04:19:54 AM 37.2500 -121.8000 321° Northwest 196 226 3,100 -450 Descending Northern Cal TRACON
Sat 04:20:54 AM 37.2500 -121.8167 270° West 177 204 3,100 -826 Level Northern Cal TRACON
Sat 04:22:12 AM 37.3083 -121.8731 322° Northwest 157 181 1,200 -1,122 Descending Oakland Center
Sat 04:23:13 AM 37.3367 -121.9028 320° Northwest 144 166 500 9,322 Descending Oakland Center
Sat 04:24:13 AM 37.3622 -121.9319 318° Northwest 131 151 20,000 19,500 Climbing Oakland Center

Login

Don't have an account? Register now (free) for customized features, flight alerts, and more!